createdAt,value
2023-01-13T00:01:27.886Z,2.60
2023-01-13T00:03:57.283Z,2.70
2023-01-13T00:06:26.163Z,2.40
2023-01-13T00:08:55.396Z,1.90
2023-01-13T00:13:51.504Z,2.70
2023-01-13T00:16:20.858Z,2.80
2023-01-13T00:18:51.180Z,2.40
2023-01-13T00:21:21.665Z,2.80
2023-01-13T00:23:51.407Z,2.70
2023-01-13T00:26:24.454Z,3.10
2023-01-13T00:28:57.494Z,2.50
2023-01-13T00:31:26.444Z,2.60
2023-01-13T00:36:25.345Z,2.40
2023-01-13T00:38:54.296Z,2.00
2023-01-13T00:41:24.521Z,2.90
2023-01-13T00:43:52.947Z,3.10
2023-01-13T00:46:22.777Z,4.00
2023-01-13T00:48:51.743Z,3.90
2023-01-13T00:51:22.090Z,3.60
2023-01-13T00:53:52.025Z,3.40
2023-01-13T00:56:41.059Z,3.20
2023-01-13T00:59:13.600Z,3.70
2023-01-13T01:01:42.468Z,3.00
2023-01-13T01:06:39.515Z,3.10
2023-01-13T01:09:07.481Z,3.90
2023-01-13T01:11:36.408Z,3.30
2023-01-13T01:14:04.875Z,3.60
2023-01-13T01:16:34.296Z,3.20
2023-01-13T01:21:30.727Z,3.40
2023-01-13T01:24:04.163Z,3.30
2023-01-13T01:26:32.780Z,4.20
2023-01-13T01:29:02.128Z,3.50
2023-01-13T01:31:32.345Z,3.90
2023-01-13T01:34:01.176Z,3.60
2023-01-13T01:39:00.636Z,3.60
2023-01-13T01:41:31.791Z,3.10
2023-01-13T01:44:28.625Z,3.10
2023-01-13T01:46:58.099Z,3.20
2023-01-13T01:49:32.658Z,3.30
2023-01-13T01:52:18.831Z,3.50
2023-01-13T01:55:25.078Z,3.40
2023-01-13T01:58:07.910Z,3.70
2023-01-13T02:00:36.326Z,3.50
2023-01-13T02:03:06.638Z,3.90
2023-01-13T02:05:34.776Z,3.50
2023-01-13T02:08:03.804Z,3.80
2023-01-13T02:13:03.856Z,3.50
2023-01-13T02:16:13.176Z,3.60
2023-01-13T02:19:06.200Z,4.10
2023-01-13T02:21:43.284Z,4.50
2023-01-13T02:24:55.052Z,4.80
2023-01-13T02:27:53.159Z,3.90
2023-01-13T02:30:43.147Z,4.30
2023-01-13T02:33:22.686Z,4.70
2023-01-13T02:36:16.661Z,4.90
2023-01-13T02:39:11.567Z,4.90
2023-01-13T02:42:15.168Z,5.20
2023-01-13T02:44:48.366Z,4.90
2023-01-13T02:47:26.125Z,5.30
2023-01-13T02:49:59.869Z,5.60
2023-01-13T02:52:34.426Z,5.40
2023-01-13T02:55:18.026Z,5.40
2023-01-13T02:57:48.250Z,5.20
2023-01-13T03:00:17.182Z,4.90
2023-01-13T03:05:17.913Z,4.50
2023-01-13T03:08:01.320Z,5.10
2023-01-13T03:10:50.491Z,4.80
2023-01-13T03:13:41.793Z,3.60
2023-01-13T03:16:28.337Z,4.80
2023-01-13T03:19:11.740Z,3.60
2023-01-13T03:21:57.542Z,5.60
2023-01-13T03:24:34.689Z,5.10
2023-01-13T03:27:13.631Z,5.20
2023-01-13T03:29:46.611Z,4.70
2023-01-13T03:32:20.741Z,5.00
2023-01-13T03:35:03.358Z,4.90
2023-01-13T03:37:36.847Z,5.10
2023-01-13T03:40:35.541Z,5.10
2023-01-13T03:43:30.042Z,4.20
2023-01-13T03:46:04.193Z,4.60
2023-01-13T03:48:36.043Z,5.20
2023-01-13T03:51:11.758Z,4.80
2023-01-13T03:53:48.127Z,5.00
2023-01-13T03:56:35.454Z,4.60
2023-01-13T03:59:08.457Z,4.30
2023-01-13T04:02:02.548Z,4.30
2023-01-13T04:04:50.037Z,4.60
2023-01-13T04:07:27.877Z,4.70
2023-01-13T04:10:03.449Z,3.50
2023-01-13T04:12:55.317Z,4.00
2023-01-13T04:15:27.749Z,4.20
2023-01-13T04:18:02.120Z,3.40
2023-01-13T04:20:30.602Z,4.20
2023-01-13T04:22:58.906Z,4.90
2023-01-13T04:25:27.260Z,4.70
2023-01-13T04:27:55.458Z,4.90
2023-01-13T04:30:23.509Z,4.70
2023-01-13T04:32:51.665Z,5.50
2023-01-13T04:35:19.948Z,4.60
2023-01-13T04:37:48.540Z,4.70
2023-01-13T04:40:16.798Z,4.70
2023-01-13T04:42:45.638Z,4.60
2023-01-13T04:45:14.458Z,4.50
2023-01-13T04:47:42.561Z,5.00
2023-01-13T04:50:11.693Z,4.70
2023-01-13T04:55:08.971Z,4.10
2023-01-13T04:57:37.921Z,4.20
2023-01-13T05:00:07.758Z,5.80
2023-01-13T05:02:35.800Z,5.70
2023-01-13T05:05:04.279Z,5.40
2023-01-13T05:07:32.261Z,5.30
2023-01-13T05:10:00.262Z,4.50
2023-01-13T05:12:47.549Z,5.20
2023-01-13T05:15:34.528Z,6.00
2023-01-13T05:18:03.248Z,5.30
2023-01-13T05:20:31.419Z,5.30
2023-01-13T05:23:18.948Z,5.20
2023-01-13T05:25:48.267Z,4.60
2023-01-13T05:28:17.038Z,4.70
2023-01-13T05:30:46.874Z,4.60
2023-01-13T05:33:17.509Z,4.90
2023-01-13T05:35:47.298Z,5.10
2023-01-13T05:38:15.898Z,4.70
2023-01-13T05:41:03.613Z,5.10
2023-01-13T05:43:33.047Z,5.40
2023-01-13T05:48:34.625Z,5.10
2023-01-13T05:51:04.563Z,5.00
2023-01-13T05:53:33.665Z,4.90
2023-01-13T05:58:32.000Z,5.00
2023-01-13T06:01:06.650Z,4.90
2023-01-13T06:03:34.800Z,5.00
2023-01-13T06:06:04.380Z,4.80
2023-01-13T06:08:33.443Z,4.50
2023-01-13T06:11:01.361Z,4.40
2023-01-13T06:13:29.552Z,5.00
2023-01-13T06:15:58.846Z,5.50
2023-01-13T06:18:28.078Z,5.70
2023-01-13T06:20:56.452Z,5.10
2023-01-13T06:23:24.503Z,5.00
2023-01-13T06:26:02.186Z,6.10
2023-01-13T06:28:29.870Z,5.60
2023-01-13T06:31:03.564Z,5.40
2023-01-13T06:33:36.299Z,5.40
2023-01-13T06:36:10.343Z,5.60
2023-01-13T06:38:42.829Z,5.10
2023-01-13T06:41:11.213Z,5.20
2023-01-13T06:43:40.147Z,5.10
2023-01-13T06:46:08.478Z,5.00
2023-01-13T06:48:35.987Z,5.10
2023-01-13T06:51:05.120Z,4.80
2023-01-13T06:53:33.223Z,5.50
2023-01-13T06:56:00.960Z,5.00
2023-01-13T06:58:28.929Z,5.00
2023-01-13T07:01:00.296Z,4.70
2023-01-13T07:03:27.943Z,4.60
2023-01-13T07:05:56.451Z,4.20
2023-01-13T07:08:24.904Z,2.90
2023-01-13T07:10:53.132Z,4.60
2023-01-13T07:13:39.427Z,3.40
2023-01-13T07:16:09.380Z,4.80
2023-01-13T07:18:37.625Z,4.60
2023-01-13T07:21:11.902Z,4.10
2023-01-13T07:23:41.092Z,4.80
2023-01-13T07:28:38.233Z,4.20
2023-01-13T07:31:12.372Z,4.90
2023-01-13T07:33:40.040Z,5.20
2023-01-13T07:36:08.527Z,4.70
2023-01-13T07:38:36.485Z,4.30
2023-01-13T07:41:23.490Z,4.00
2023-01-13T07:43:52.119Z,3.90
2023-01-13T07:46:20.170Z,4.80
2023-01-13T07:48:48.851Z,5.10
2023-01-13T07:51:17.011Z,4.90
2023-01-13T07:53:44.981Z,5.00
2023-01-13T07:56:13.378Z,5.00
2023-01-13T07:58:41.022Z,4.80
2023-01-13T08:01:12.064Z,5.00
2023-01-13T08:03:40.708Z,5.50
2023-01-13T08:06:09.670Z,4.90
2023-01-13T08:08:38.542Z,5.10
2023-01-13T08:13:35.613Z,32.80
2023-01-13T08:16:06.358Z,29.60
2023-01-13T08:18:36.502Z,25.20
2023-01-13T08:21:07.542Z,4.60
2023-01-13T08:23:35.774Z,5.50
2023-01-13T08:26:10.041Z,4.30
2023-01-13T08:28:40.240Z,6.30
2023-01-13T08:31:11.582Z,4.80
2023-01-13T08:33:39.625Z,4.70
2023-01-13T08:36:09.529Z,4.60
2023-01-13T08:38:38.039Z,6.50
2023-01-13T08:41:12.758Z,6.10
2023-01-13T08:43:40.727Z,4.80
2023-01-13T08:46:09.556Z,5.20
2023-01-13T08:48:40.430Z,4.70
2023-01-13T08:51:09.264Z,4.30
2023-01-13T08:53:37.430Z,10.00
2023-01-13T08:56:12.797Z,5.80
2023-01-13T08:58:40.836Z,4.40
2023-01-13T09:01:09.831Z,38.90
2023-01-13T09:03:38.821Z,24.70
2023-01-13T09:08:34.750Z,6.60
2023-01-13T09:11:22.903Z,13.60
2023-01-13T09:13:51.667Z,29.40
2023-01-13T09:16:19.831Z,11.40
2023-01-13T09:18:47.413Z,12.80
2023-01-13T09:21:19.378Z,54.30
2023-01-13T09:23:47.361Z,30.20
2023-01-13T09:26:20.043Z,44.10
2023-01-13T09:28:48.015Z,29.00
2023-01-13T09:31:16.199Z,46.80
2023-01-13T09:34:02.500Z,38.30
2023-01-13T09:38:58.328Z,16.40
2023-01-13T09:41:52.389Z,27.80
2023-01-13T09:44:29.633Z,14.70
2023-01-13T09:47:02.559Z,5.00
2023-01-13T09:49:40.478Z,11.20
2023-01-13T09:52:19.401Z,5.60
2023-01-13T09:55:09.796Z,5.40
2023-01-13T09:57:39.737Z,14.90
2023-01-13T10:00:33.473Z,22.50
2023-01-13T10:03:34.855Z,20.30
2023-01-13T10:06:13.382Z,8.30
2023-01-13T10:08:46.307Z,9.40
2023-01-13T10:11:55.381Z,7.50
2023-01-13T10:14:41.278Z,6.10
2023-01-13T10:17:21.198Z,5.60
2023-01-13T10:19:57.769Z,6.00
2023-01-13T10:22:49.394Z,5.30
2023-01-13T10:25:26.494Z,6.10
2023-01-13T10:28:01.633Z,4.70
2023-01-13T10:30:35.754Z,6.20
2023-01-13T10:33:20.818Z,6.50
2023-01-13T10:36:01.612Z,5.50
2023-01-13T10:38:43.788Z,6.00
2023-01-13T10:41:22.913Z,5.70
2023-01-13T10:44:14.356Z,4.70
2023-01-13T10:46:56.781Z,5.10
2023-01-13T10:49:36.665Z,5.00
2023-01-13T10:52:25.352Z,6.00
2023-01-13T10:54:54.459Z,5.20
2023-01-13T10:57:25.181Z,4.00
2023-01-13T10:59:53.847Z,5.10
2023-01-13T11:02:28.134Z,4.30
2023-01-13T11:04:56.181Z,4.90
2023-01-13T11:07:45.692Z,4.80
2023-01-13T11:10:18.754Z,4.00
2023-01-13T11:13:05.426Z,3.20
2023-01-13T11:15:46.105Z,3.80
2023-01-13T11:18:24.802Z,3.70
2023-01-13T11:20:54.613Z,3.30
2023-01-13T11:23:30.380Z,3.40
2023-01-13T11:26:08.693Z,2.90
2023-01-13T11:28:45.672Z,3.80
2023-01-13T11:31:28.078Z,3.90
2023-01-13T11:34:15.194Z,3.50
2023-01-13T11:36:51.348Z,3.70
2023-01-13T11:39:47.309Z,2.60
2023-01-13T11:42:24.270Z,4.30
2023-01-13T11:44:52.226Z,4.00
2023-01-13T11:47:23.663Z,2.40
2023-01-13T11:49:51.447Z,3.50
2023-01-13T11:52:32.518Z,3.20
2023-01-13T11:55:28.028Z,3.00
2023-01-13T11:58:08.990Z,2.80
2023-01-13T12:00:56.081Z,3.10
2023-01-13T12:03:38.290Z,3.50
2023-01-13T12:06:06.404Z,3.30
2023-01-13T12:08:46.809Z,3.90
2023-01-13T12:12:09.517Z,4.10
2023-01-13T12:14:46.244Z,3.30
2023-01-13T12:17:47.535Z,4.00
2023-01-13T12:20:53.815Z,3.10
2023-01-13T12:23:40.205Z,2.60
2023-01-13T12:26:14.025Z,3.60
2023-01-13T12:29:03.902Z,4.30
2023-01-13T12:31:36.701Z,5.70
2023-01-13T12:34:13.562Z,4.70
2023-01-13T12:36:56.706Z,4.20
2023-01-13T12:39:59.452Z,5.90
2023-01-13T12:43:30.012Z,8.90
2023-01-13T12:46:20.911Z,4.40
2023-01-13T12:48:54.645Z,6.40
2023-01-13T12:51:33.253Z,5.50
2023-01-13T12:54:02.341Z,4.80
2023-01-13T12:56:34.877Z,3.60
2023-01-13T12:59:19.898Z,3.10
2023-01-13T13:02:12.086Z,18.10
2023-01-13T13:04:51.786Z,7.70
2023-01-13T13:07:30.071Z,4.70
2023-01-13T13:10:06.119Z,7.50
2023-01-13T13:13:01.948Z,4.20
2023-01-13T13:15:31.476Z,5.80
2023-01-13T13:18:02.072Z,4.30
2023-01-13T13:21:04.311Z,4.10
2023-01-13T13:23:45.632Z,3.90
2023-01-13T13:26:24.457Z,3.90
2023-01-13T13:29:17.215Z,3.60
2023-01-13T13:31:45.181Z,4.50
2023-01-13T13:34:34.254Z,4.50
2023-01-13T13:37:56.903Z,5.90
2023-01-13T13:40:44.438Z,4.20
2023-01-13T13:43:33.179Z,3.40
2023-01-13T13:46:19.902Z,4.00
2023-01-13T13:48:53.145Z,4.20
2023-01-13T13:51:31.051Z,3.80
2023-01-13T13:54:02.559Z,3.90
2023-01-13T13:56:35.736Z,3.70
2023-01-13T13:59:03.805Z,3.50
2023-01-13T14:01:40.548Z,3.80
2023-01-13T14:04:27.848Z,3.20
2023-01-13T14:07:06.927Z,3.80
2023-01-13T14:09:45.714Z,4.20
2023-01-13T14:12:22.442Z,4.20
2023-01-13T14:14:51.390Z,4.60
2023-01-13T14:17:25.603Z,4.00
2023-01-13T14:20:05.607Z,3.70
2023-01-13T14:22:33.605Z,3.70
2023-01-13T14:25:01.796Z,2.70
2023-01-13T14:27:30.618Z,4.10
2023-01-13T14:30:01.920Z,4.60
2023-01-13T14:32:37.316Z,4.90
2023-01-13T14:35:08.601Z,3.20
2023-01-13T14:37:41.811Z,3.80
2023-01-13T14:40:47.822Z,3.90
2023-01-13T14:43:18.944Z,3.90
2023-01-13T14:46:00.739Z,3.60
2023-01-13T14:48:36.026Z,3.30
2023-01-13T14:51:09.539Z,2.90
2023-01-13T14:53:43.742Z,3.40
2023-01-13T14:59:22.572Z,3.70
2023-01-13T15:01:50.591Z,3.80
2023-01-13T15:04:26.988Z,3.90
2023-01-13T15:06:57.163Z,3.80
2023-01-13T15:09:45.150Z,4.30
2023-01-13T15:12:33.324Z,7.40
2023-01-13T15:15:03.746Z,5.90
2023-01-13T15:17:31.818Z,5.70
2023-01-13T15:20:01.204Z,4.00
2023-01-13T15:22:29.736Z,5.40
2023-01-13T15:24:57.356Z,5.70
2023-01-13T15:27:26.026Z,6.90
2023-01-13T15:29:53.925Z,4.50
2023-01-13T15:32:22.112Z,5.80
2023-01-13T15:34:50.593Z,5.70
2023-01-13T15:37:19.572Z,5.00
2023-01-13T15:42:33.426Z,4.20
2023-01-13T15:45:19.729Z,6.10
2023-01-13T15:47:48.200Z,9.90
2023-01-13T15:50:17.211Z,7.90
2023-01-13T15:52:44.852Z,4.60
2023-01-13T15:55:12.731Z,7.30
2023-01-13T15:57:47.249Z,4.30
2023-01-13T16:00:19.851Z,3.50
2023-01-13T16:02:49.479Z,3.90
2023-01-13T16:05:17.410Z,4.10
2023-01-13T16:07:45.481Z,4.10
2023-01-13T16:10:23.799Z,5.20
2023-01-13T16:12:52.376Z,4.20
2023-01-13T16:15:23.209Z,3.70
2023-01-13T16:18:00.664Z,5.00
2023-01-13T16:20:28.681Z,4.70
2023-01-13T16:22:56.548Z,5.30
2023-01-13T16:25:26.299Z,5.80
2023-01-13T16:27:53.938Z,5.30
2023-01-13T16:30:29.240Z,4.60
2023-01-13T16:32:57.780Z,5.90
2023-01-13T16:35:26.368Z,6.90
2023-01-13T16:37:57.947Z,3.80
2023-01-13T16:40:35.652Z,4.80
2023-01-13T16:43:04.508Z,3.50
2023-01-13T16:45:32.435Z,5.40
2023-01-13T16:48:00.269Z,3.90
2023-01-13T16:50:36.116Z,3.60
2023-01-13T16:53:04.700Z,5.30
2023-01-13T16:55:32.980Z,4.60
2023-01-13T16:58:00.840Z,3.00
2023-01-13T17:00:30.051Z,3.30
2023-01-13T17:03:02.538Z,4.00
2023-01-13T17:05:30.600Z,3.60
2023-01-13T17:07:58.567Z,4.30
2023-01-13T17:10:26.482Z,3.30
2023-01-13T17:12:54.516Z,3.50
2023-01-13T17:15:22.579Z,4.20
2023-01-13T17:17:51.807Z,3.90
2023-01-13T17:20:20.167Z,4.60
2023-01-13T17:22:57.753Z,4.10
2023-01-13T17:25:26.557Z,4.00
2023-01-13T17:27:54.605Z,7.30
2023-01-13T17:30:23.193Z,7.30
2023-01-13T17:32:51.372Z,5.20
2023-01-13T17:35:24.369Z,5.90
2023-01-13T17:37:53.149Z,5.10
2023-01-13T17:40:21.423Z,5.20
2023-01-13T17:42:49.387Z,6.00
2023-01-13T17:45:17.495Z,4.70
2023-01-13T17:47:47.282Z,5.00
2023-01-13T17:50:17.092Z,6.60
2023-01-13T17:52:44.588Z,5.70
2023-01-13T17:55:12.413Z,5.70
2023-01-13T17:57:40.689Z,5.10
2023-01-13T18:00:09.075Z,6.80
2023-01-13T18:02:37.119Z,5.70
2023-01-13T18:05:05.222Z,5.70
2023-01-13T18:07:33.390Z,5.60
2023-01-13T18:10:01.048Z,4.70
2023-01-13T18:12:28.816Z,5.50
2023-01-13T18:14:56.907Z,4.80
2023-01-13T18:17:25.042Z,5.00
2023-01-13T18:20:11.861Z,4.80
2023-01-13T18:22:58.376Z,4.40
2023-01-13T18:28:13.243Z,3.50
2023-01-13T18:30:41.444Z,3.40
2023-01-13T18:33:09.479Z,3.50
2023-01-13T18:35:39.325Z,3.40
2023-01-13T18:38:08.100Z,4.30
2023-01-13T18:40:36.069Z,4.20
2023-01-13T18:43:04.039Z,4.40
2023-01-13T18:45:32.823Z,4.60
2023-01-13T18:48:03.144Z,4.50
2023-01-13T18:50:32.241Z,4.30
2023-01-13T18:53:00.119Z,4.20
2023-01-13T18:55:28.822Z,4.60
2023-01-13T18:57:57.474Z,4.90
2023-01-13T19:00:27.011Z,4.60
2023-01-13T19:05:35.593Z,4.50
2023-01-13T19:08:04.401Z,5.00
2023-01-13T19:10:32.563Z,4.90
2023-01-13T19:13:01.494Z,5.70
2023-01-13T19:15:30.245Z,5.80
2023-01-13T19:17:58.143Z,6.20
2023-01-13T19:20:26.206Z,6.20
2023-01-13T19:22:54.788Z,6.20
2023-01-13T19:25:22.964Z,6.60
2023-01-13T19:27:50.939Z,5.10
2023-01-13T19:30:19.317Z,5.30
2023-01-13T19:32:47.180Z,5.50
2023-01-13T19:35:17.834Z,5.90
2023-01-13T19:37:45.936Z,5.20
2023-01-13T19:40:14.360Z,5.10
2023-01-13T19:43:04.051Z,4.00
2023-01-13T19:45:34.747Z,4.70
2023-01-13T19:48:05.184Z,4.70
2023-01-13T19:50:38.368Z,5.60
2023-01-13T19:53:07.999Z,4.90
2023-01-13T19:55:36.076Z,5.30
2023-01-13T19:58:04.453Z,5.20
2023-01-13T20:00:33.036Z,4.40
2023-01-13T20:03:03.324Z,4.80
2023-01-13T20:05:31.232Z,5.50
2023-01-13T20:07:58.775Z,5.20
2023-01-13T20:10:30.155Z,5.40
2023-01-13T20:12:58.103Z,5.30
2023-01-13T20:15:25.582Z,4.90
2023-01-13T20:17:53.841Z,5.00
2023-01-13T20:20:21.818Z,4.90
2023-01-13T20:22:49.890Z,3.40
2023-01-13T20:25:18.935Z,5.20
2023-01-13T20:30:15.939Z,3.90
2023-01-13T20:32:44.331Z,4.10
2023-01-13T20:35:12.517Z,5.00
2023-01-13T20:37:41.665Z,3.50
2023-01-13T20:40:13.242Z,4.70
2023-01-13T20:42:47.357Z,3.70
2023-01-13T20:45:17.133Z,4.60
2023-01-13T20:47:45.130Z,5.00
2023-01-13T20:50:13.222Z,4.80
2023-01-13T20:52:41.282Z,5.20
2023-01-13T20:55:10.300Z,3.50
2023-01-13T21:00:06.848Z,5.10
2023-01-13T21:02:34.926Z,5.50
2023-01-13T21:05:02.979Z,5.40
2023-01-13T21:07:30.638Z,4.30
2023-01-13T21:09:58.602Z,6.00
2023-01-13T21:12:45.114Z,4.70
2023-01-13T21:15:22.610Z,5.90
2023-01-13T21:18:10.677Z,5.30
2023-01-13T21:20:39.118Z,6.10
2023-01-13T21:23:07.676Z,4.80
2023-01-13T21:25:37.270Z,5.00
2023-01-13T21:28:10.657Z,5.60
2023-01-13T21:30:39.433Z,6.10
2023-01-13T21:33:07.218Z,6.10
2023-01-13T21:35:39.019Z,6.90
2023-01-13T21:38:07.013Z,6.70
2023-01-13T21:40:34.962Z,7.20
2023-01-13T21:43:21.468Z,7.40
2023-01-13T21:46:08.118Z,6.80
2023-01-13T21:48:36.448Z,6.30
2023-01-13T21:51:04.830Z,5.50
2023-01-13T21:53:33.035Z,6.40
2023-01-13T21:56:00.993Z,4.70
2023-01-13T21:58:28.935Z,7.40
2023-01-13T22:01:01.431Z,7.00
2023-01-13T22:03:29.692Z,6.90
2023-01-13T22:05:57.866Z,7.00
2023-01-13T22:08:26.055Z,8.20
2023-01-13T22:11:00.528Z,8.50
2023-01-13T22:13:48.077Z,7.30
2023-01-13T22:16:16.235Z,8.40
2023-01-13T22:18:44.145Z,7.80
2023-01-13T22:21:12.519Z,9.00
2023-01-13T22:23:40.590Z,7.90
2023-01-13T22:26:09.023Z,8.20
2023-01-13T22:28:43.810Z,7.50
2023-01-13T22:31:14.089Z,8.00
2023-01-13T22:33:42.915Z,7.60
2023-01-13T22:36:11.096Z,8.20
2023-01-13T22:38:39.559Z,7.60
2023-01-13T22:41:09.186Z,6.80
2023-01-13T22:43:38.197Z,7.20
2023-01-13T22:46:09.142Z,7.00
2023-01-13T22:48:37.791Z,6.70
2023-01-13T22:51:06.502Z,6.80
2023-01-13T22:53:35.058Z,6.90
2023-01-13T22:56:03.055Z,7.20
2023-01-13T22:58:30.890Z,6.10
2023-01-13T23:01:13.475Z,6.40
2023-01-13T23:03:41.859Z,4.90
2023-01-13T23:06:09.874Z,5.30
2023-01-13T23:08:38.546Z,4.30
2023-01-13T23:11:09.191Z,4.30
2023-01-13T23:13:39.355Z,3.40
2023-01-13T23:16:10.637Z,3.40
2023-01-13T23:18:39.348Z,3.90
2023-01-13T23:21:10.410Z,3.60
2023-01-13T23:23:39.395Z,3.70
2023-01-13T23:26:08.361Z,3.60
2023-01-13T23:31:13.578Z,3.10
2023-01-13T23:33:43.162Z,3.40
2023-01-13T23:36:17.614Z,2.70
2023-01-13T23:38:46.486Z,3.10
2023-01-13T23:41:16.981Z,2.90
2023-01-13T23:43:49.646Z,2.90
2023-01-13T23:46:17.666Z,3.10
2023-01-13T23:48:45.686Z,2.70
2023-01-13T23:51:14.571Z,2.60
2023-01-13T23:53:45.169Z,2.10
2023-01-13T23:56:17.548Z,2.50
2023-01-13T23:58:46.900Z,2.00
